Time;durP1;ratioP1;P1;durP2;ratioP2;P2;SDS_P1;SDS_P2;PMS_P1;PMS_P2;Temp;Humidity;BMP_temperature;BMP_pressure;BME280_temperature;BME280_humidity;BME280_pressure;Samples;Min_cycle;Max_cycle;Signal;HPM_P1;HPM_P2
2023/05/13 00:01:27;;;;;;;29.88;15.07;;;;;;;;;;4993177;28;20022;-77
2023/05/13 00:03:53;;;;;;;29.67;13.82;;;;;;;;;;4993380;28;20046;-77
2023/05/13 00:06:19;;;;;;;28.90;13.65;;;;;;;;;;4993336;28;20033;-78
2023/05/13 00:08:45;;;;;;;27.30;12.80;;;;;;;;;;4993198;28;20109;-77
2023/05/13 00:11:11;;;;;;;23.10;12.68;;;;;;;;;;4992820;28;20025;-78
2023/05/13 00:13:37;;;;;;;34.72;14.60;;;;;;;;;;4993228;28;20487;-79
2023/05/13 00:16:03;;;;;;;32.50;13.45;;;;;;;;;;4992984;28;20106;-78
2023/05/13 00:18:29;;;;;;;29.25;13.60;;;;;;;;;;4993118;28;20054;-77
2023/05/13 00:20:55;;;;;;;23.95;13.95;;;;;;;;;;4992973;28;20054;-78
2023/05/13 00:23:22;;;;;;;28.55;14.77;;;;;;;;;;4992352;28;20046;-78
2023/05/13 00:25:48;;;;;;;27.70;13.65;;;;;;;;;;4993055;28;20024;-77
2023/05/13 00:28:14;;;;;;;30.13;14.35;;;;;;;;;;4993041;28;20026;-76
2023/05/13 00:30:44;;;;;;;23.48;12.63;;;;;;;;;;4992621;28;20023;-78
2023/05/13 00:33:10;;;;;;;22.13;13.95;;;;;;;;;;4992938;28;20034;-77
2023/05/13 00:35:36;;;;;;;32.13;14.35;;;;;;;;;;4990961;28;20053;-77
2023/05/13 00:38:02;;;;;;;32.85;13.95;;;;;;;;;;4992639;28;20037;-78
2023/05/13 00:40:28;;;;;;;24.70;14.45;;;;;;;;;;4992727;28;20022;-78
2023/05/13 00:42:54;;;;;;;31.33;14.18;;;;;;;;;;4991364;28;20395;-78
2023/05/13 00:45:21;;;;;;;27.58;13.20;;;;;;;;;;4992386;28;20467;-77
2023/05/13 00:47:47;;;;;;;24.70;12.80;;;;;;;;;;4992608;28;20553;-78
2023/05/13 00:50:13;;;;;;;26.20;12.68;;;;;;;;;;4992683;28;20030;-77
2023/05/13 00:52:41;;;;;;;22.05;12.38;;;;;;;;;;4992644;28;20052;-78
2023/05/13 00:55:08;;;;;;;26.90;13.00;;;;;;;;;;4992548;28;20027;-78
2023/05/13 00:57:34;;;;;;;31.30;13.90;;;;;;;;;;4992019;28;20620;-77
2023/05/13 01:00:01;;;;;;;26.35;12.77;;;;;;;;;;4992522;28;20076;-78
2023/05/13 01:02:31;;;;;;;31.10;14.18;;;;;;;;;;4992341;28;20026;-78
2023/05/13 01:05:02;;;;;;;29.48;13.52;;;;;;;;;;4992307;28;20034;-78
2023/05/13 01:07:28;;;;;;;33.42;13.15;;;;;;;;;;4992403;28;20465;-76
2023/05/13 01:10:04;;;;;;;25.52;12.60;;;;;;;;;;4991970;28;20030;-78
2023/05/13 01:12:33;;;;;;;24.40;12.57;;;;;;;;;;4992111;28;20526;-79
2023/05/13 01:15:03;;;;;;;25.63;12.90;;;;;;;;;;4992130;28;20578;-78
2023/05/13 01:17:49;;;;;;;21.42;12.77;;;;;;;;;;4992181;28;20027;-76
2023/05/13 01:20:16;;;;;;;26.00;12.35;;;;;;;;;;4991443;28;20025;-79
2023/05/13 01:22:42;;;;;;;24.25;12.50;;;;;;;;;;4992046;28;20113;-77
2023/05/13 01:25:09;;;;;;;23.67;12.85;;;;;;;;;;4992047;28;20050;-77
2023/05/13 01:27:35;;;;;;;24.35;12.80;;;;;;;;;;4991213;28;20026;-79
2023/05/13 01:30:01;;;;;;;24.35;12.30;;;;;;;;;;4990693;28;20407;-77
2023/05/13 01:32:28;;;;;;;26.38;13.88;;;;;;;;;;4991687;28;20045;-78
2023/05/13 01:34:55;;;;;;;24.35;13.20;;;;;;;;;;4991926;28;20023;-78
2023/05/13 01:37:21;;;;;;;22.75;11.82;;;;;;;;;;4991777;28;20396;-78
2023/05/13 01:39:47;;;;;;;26.10;13.10;;;;;;;;;;4991810;28;20172;-78
2023/05/13 01:42:13;;;;;;;23.10;11.70;;;;;;;;;;4991799;28;20204;-78
2023/05/13 01:44:39;;;;;;;24.77;13.52;;;;;;;;;;4991261;28;20487;-77
2023/05/13 01:47:05;;;;;;;25.55;12.73;;;;;;;;;;4991891;28;20027;-79
2023/05/13 01:49:31;;;;;;;28.85;13.88;;;;;;;;;;4991553;28;20018;-78
2023/05/13 01:51:57;;;;;;;27.52;13.05;;;;;;;;;;4991659;28;20041;-79
2023/05/13 01:54:24;;;;;;;24.08;12.88;;;;;;;;;;4991697;28;20015;-78
2023/05/13 01:56:51;;;;;;;27.27;13.43;;;;;;;;;;4991467;28;20038;-75
2023/05/13 01:59:18;;;;;;;25.35;12.02;;;;;;;;;;4991524;28;20081;-77
2023/05/13 02:01:44;;;;;;;24.35;12.50;;;;;;;;;;4991867;28;20034;-78
2023/05/13 02:04:10;;;;;;;23.92;13.27;;;;;;;;;;4991622;28;20022;-77
2023/05/13 02:06:37;;;;;;;26.85;12.93;;;;;;;;;;4989910;28;20026;-76
2023/05/13 02:09:03;;;;;;;27.33;12.82;;;;;;;;;;4991556;28;20050;-76
2023/05/13 02:11:29;;;;;;;25.30;12.55;;;;;;;;;;4991526;28;20053;-76
2023/05/13 02:13:55;;;;;;;22.35;12.35;;;;;;;;;;4991561;28;20042;-77
2023/05/13 02:16:21;;;;;;;25.00;13.07;;;;;;;;;;4991401;28;20026;-75
2023/05/13 02:18:47;;;;;;;19.30;12.25;;;;;;;;;;4991151;28;20041;-77
2023/05/13 02:23:49;;;;;;;20.58;12.55;;;;;;;;;;5762948;22;20515;-77
2023/05/13 02:26:15;;;;;;;26.15;12.45;;;;;;;;;;5030989;28;20032;-78
2023/05/13 02:28:41;;;;;;;25.38;12.75;;;;;;;;;;5030591;28;20366;-77
2023/05/13 02:31:07;;;;;;;23.10;11.43;;;;;;;;;;5030645;28;20272;-78
2023/05/13 02:33:33;;;;;;;24.65;12.63;;;;;;;;;;5030659;28;20028;-77
2023/05/13 02:35:59;;;;;;;25.98;12.88;;;;;;;;;;5030744;28;20021;-77
2023/05/13 02:38:25;;;;;;;32.65;13.05;;;;;;;;;;5032822;28;20030;-77
2023/05/13 02:40:51;;;;;;;26.40;13.30;;;;;;;;;;5034038;28;20355;-78
2023/05/13 02:43:18;;;;;;;24.20;12.32;;;;;;;;;;5034144;28;20022;-77
2023/05/13 02:45:44;;;;;;;24.77;12.98;;;;;;;;;;5034113;28;20040;-78
2023/05/13 02:48:10;;;;;;;22.88;12.95;;;;;;;;;;5034103;28;20032;-77
2023/05/13 02:50:36;;;;;;;22.25;12.27;;;;;;;;;;5034093;28;20017;-78
2023/05/13 02:53:02;;;;;;;21.42;12.30;;;;;;;;;;5033535;28;20458;-77
2023/05/13 02:55:28;;;;;;;26.63;13.02;;;;;;;;;;5034118;28;20064;-77
2023/05/13 02:57:55;;;;;;;30.52;13.13;;;;;;;;;;5034050;28;20064;-76
2023/05/13 03:00:21;;;;;;;25.75;13.30;;;;;;;;;;5032707;28;20441;-79
2023/05/13 03:02:47;;;;;;;25.52;12.52;;;;;;;;;;5033857;28;20032;-78
2023/05/13 03:05:13;;;;;;;22.98;13.00;;;;;;;;;;5033488;28;20095;-77
2023/05/13 03:07:39;;;;;;;23.77;12.35;;;;;;;;;;5033942;28;20366;-77
2023/05/13 03:10:06;;;;;;;26.27;13.02;;;;;;;;;;5032461;28;20493;-78
2023/05/13 03:12:32;;;;;;;28.55;13.15;;;;;;;;;;5033520;28;20026;-77
2023/05/13 03:14:58;;;;;;;31.70;13.43;;;;;;;;;;5033450;28;20383;-78
2023/05/13 03:17:24;;;;;;;29.45;13.57;;;;;;;;;;5033706;28;20029;-78
2023/05/13 03:19:50;;;;;;;27.23;14.43;;;;;;;;;;5033760;28;20414;-78
2023/05/13 03:22:17;;;;;;;31.40;14.45;;;;;;;;;;5033433;28;20029;-77
2023/05/13 03:24:43;;;;;;;28.55;13.35;;;;;;;;;;5020732;28;20057;-78
2023/05/13 03:27:09;;;;;;;31.17;13.73;;;;;;;;;;5013404;28;20451;-77
2023/05/13 03:29:35;;;;;;;25.38;13.80;;;;;;;;;;5013784;28;20493;-78
2023/05/13 03:32:01;;;;;;;24.27;12.63;;;;;;;;;;5013525;28;20077;-77
2023/05/13 03:34:27;;;;;;;22.80;12.02;;;;;;;;;;5013738;28;20072;-77
2023/05/13 03:36:53;;;;;;;19.17;12.38;;;;;;;;;;5013376;28;20036;-76
2023/05/13 03:39:19;;;;;;;27.50;13.65;;;;;;;;;;5013164;28;20026;-78
2023/05/13 03:41:45;;;;;;;26.38;12.80;;;;;;;;;;5013398;28;20018;-78
2023/05/13 03:44:11;;;;;;;24.23;12.23;;;;;;;;;;5013417;28;20030;-78
2023/05/13 03:46:38;;;;;;;23.00;11.98;;;;;;;;;;5012083;28;20022;-77
2023/05/13 03:49:04;;;;;;;22.98;13.00;;;;;;;;;;5012518;28;20038;-78
2023/05/13 03:51:31;;;;;;;25.98;12.50;;;;;;;;;;5012749;28;20470;-77
2023/05/13 03:53:57;;;;;;;28.80;12.73;;;;;;;;;;5013107;28;20053;-76
2023/05/13 03:56:23;;;;;;;26.25;11.50;;;;;;;;;;5013148;28;20057;-77
2023/05/13 03:58:50;;;;;;;20.77;11.32;;;;;;;;;;5011753;28;20060;-78
2023/05/13 04:01:16;;;;;;;26.10;12.00;;;;;;;;;;5012957;28;20034;-76
2023/05/13 04:03:44;;;;;;;23.88;11.55;;;;;;;;;;5012932;28;20057;-77
2023/05/13 04:06:10;;;;;;;22.02;11.80;;;;;;;;;;5013146;28;20033;-77
2023/05/13 04:08:36;;;;;;;23.05;11.68;;;;;;;;;;5013143;28;20025;-78
2023/05/13 04:11:02;;;;;;;19.15;10.70;;;;;;;;;;5013005;28;20374;-77
2023/05/13 04:13:28;;;;;;;24.45;11.82;;;;;;;;;;5012547;28;20104;-78
2023/05/13 04:15:54;;;;;;;22.27;12.00;;;;;;;;;;5013010;28;20496;-77
2023/05/13 04:18:21;;;;;;;21.17;11.32;;;;;;;;;;5012804;28;20034;-77
2023/05/13 04:20:47;;;;;;;18.55;10.60;;;;;;;;;;5013082;28;20029;-78
2023/05/13 04:23:13;;;;;;;23.73;12.43;;;;;;;;;;5012879;28;20091;-78
2023/05/13 04:25:40;;;;;;;24.70;12.18;;;;;;;;;;5012655;28;20090;-78
2023/05/13 04:28:07;;;;;;;20.63;11.77;;;;;;;;;;5013086;28;20022;-78
2023/05/13 04:30:33;;;;;;;22.85;11.73;;;;;;;;;;5013126;28;20026;-78
2023/05/13 04:32:59;;;;;;;23.83;11.25;;;;;;;;;;5012561;28;20038;-78
2023/05/13 04:35:25;;;;;;;18.83;10.77;;;;;;;;;;5012273;28;20061;-78
2023/05/13 04:37:51;;;;;;;22.60;12.02;;;;;;;;;;5012220;28;20433;-79
2023/05/13 04:40:17;;;;;;;20.23;11.18;;;;;;;;;;5012426;28;20060;-78
2023/05/13 04:42:43;;;;;;;21.00;11.05;;;;;;;;;;5012326;28;20060;-77
2023/05/13 04:45:09;;;;;;;25.55;11.98;;;;;;;;;;5012187;28;20057;-78
2023/05/13 04:47:36;;;;;;;26.52;12.15;;;;;;;;;;5011754;28;20022;-78
2023/05/13 04:50:02;;;;;;;21.90;11.98;;;;;;;;;;5012326;28;20493;-78
2023/05/13 04:52:29;;;;;;;23.80;11.15;;;;;;;;;;5012065;28;20038;-78
2023/05/13 04:54:55;;;;;;;19.75;10.52;;;;;;;;;;5011984;28;20026;-78
2023/05/13 04:57:21;;;;;;;19.38;11.43;;;;;;;;;;5012086;28;20030;-78
2023/05/13 04:59:47;;;;;;;17.95;10.70;;;;;;;;;;5011454;28;20026;-78
2023/05/13 05:02:13;;;;;;;21.42;10.98;;;;;;;;;;5011172;28;20025;-78
2023/05/13 05:04:39;;;;;;;17.08;9.80;;;;;;;;;;5011991;28;20022;-78
2023/05/13 05:07:05;;;;;;;17.80;9.55;;;;;;;;;;5011911;28;20102;-76
2023/05/13 05:09:31;;;;;;;20.25;10.52;;;;;;;;;;5011915;28;20029;-79
2023/05/13 05:11:57;;;;;;;16.15;9.93;;;;;;;;;;5011493;28;20033;-78
2023/05/13 05:14:23;;;;;;;17.90;9.55;;;;;;;;;;5011756;28;20479;-78
2023/05/13 05:16:49;;;;;;;15.63;9.85;;;;;;;;;;5003778;28;20035;-77
2023/05/13 05:19:15;;;;;;;21.98;10.80;;;;;;;;;;4992154;28;20081;-78
2023/05/13 05:21:41;;;;;;;17.70;11.13;;;;;;;;;;4991491;28;20077;-78
2023/05/13 05:24:07;;;;;;;20.02;9.82;;;;;;;;;;4991595;28;20046;-76
2023/05/13 05:26:33;;;;;;;21.20;10.23;;;;;;;;;;5002769;28;20026;-78
2023/05/13 05:28:59;;;;;;;19.25;9.52;;;;;;;;;;5009664;28;20545;-77
2023/05/13 05:31:26;;;;;;;21.95;10.05;;;;;;;;;;5010866;28;20060;-78
2023/05/13 05:33:52;;;;;;;22.50;10.52;;;;;;;;;;5009725;28;20446;-78
2023/05/13 05:36:18;;;;;;;21.63;10.00;;;;;;;;;;5011499;28;20026;-78
2023/05/13 05:38:44;;;;;;;19.15;10.13;;;;;;;;;;5009975;28;20053;-79
2023/05/13 05:41:10;;;;;;;18.02;9.90;;;;;;;;;;5008298;28;20104;-78
2023/05/13 05:43:36;;;;;;;16.45;9.63;;;;;;;;;;5009653;28;20386;-77
2023/05/13 05:46:03;;;;;;;16.25;10.18;;;;;;;;;;5006343;28;20038;-78
2023/05/13 05:48:30;;;;;;;17.98;9.45;;;;;;;;;;5009526;28;20490;-78
2023/05/13 05:50:56;;;;;;;24.83;10.02;;;;;;;;;;5001751;28;20070;-78
2023/05/13 05:53:22;;;;;;;14.52;9.65;;;;;;;;;;4997682;28;20026;-74
2023/05/13 05:55:48;;;;;;;17.33;10.20;;;;;;;;;;5009445;28;20018;-76
2023/05/13 05:58:15;;;;;;;18.02;10.25;;;;;;;;;;5003445;28;20425;-76
2023/05/13 06:00:41;;;;;;;21.73;9.75;;;;;;;;;;5011372;28;20053;-77
2023/05/13 06:03:07;;;;;;;26.75;10.88;;;;;;;;;;5011286;28;20022;-79
2023/05/13 06:05:34;;;;;;;20.85;11.18;;;;;;;;;;5011413;28;20088;-81
2023/05/13 06:08:00;;;;;;;19.92;10.73;;;;;;;;;;5010896;28;20470;-80
2023/05/13 06:10:26;;;;;;;17.98;10.35;;;;;;;;;;5011228;28;20389;-80
2023/05/13 06:12:52;;;;;;;20.48;11.20;;;;;;;;;;5012532;28;20548;-80
2023/05/13 06:15:18;;;;;;;20.75;10.60;;;;;;;;;;5014620;28;20092;-80
2023/05/13 06:17:44;;;;;;;20.92;10.98;;;;;;;;;;5013903;28;20034;-78
2023/05/13 06:20:10;;;;;;;23.38;10.48;;;;;;;;;;5014410;28;20071;-79
2023/05/13 06:22:36;;;;;;;17.27;10.63;;;;;;;;;;5015063;28;20076;-80
2023/05/13 06:25:04;;;;;;;19.13;10.65;;;;;;;;;;5014779;28;20066;-78
2023/05/13 06:27:32;;;;;;;25.13;13.32;;;;;;;;;;5015029;28;20041;-80
2023/05/13 06:29:58;;;;;;;15.68;9.55;;;;;;;;;;5014344;28;20378;-79
2023/05/13 06:32:24;;;;;;;19.35;10.10;;;;;;;;;;5014415;28;20037;-79
2023/05/13 06:34:51;;;;;;;20.77;10.98;;;;;;;;;;5014865;28;20096;-79
2023/05/13 06:37:17;;;;;;;22.42;10.63;;;;;;;;;;5014759;28;20429;-80
2023/05/13 06:39:43;;;;;;;16.58;10.20;;;;;;;;;;5014734;28;20037;-80
2023/05/13 06:42:09;;;;;;;19.42;10.15;;;;;;;;;;5014489;28;20026;-78
2023/05/13 06:44:35;;;;;;;17.90;9.80;;;;;;;;;;5014446;28;20084;-81
2023/05/13 06:47:03;;;;;;;18.63;10.90;;;;;;;;;;5014542;28;20026;-80
2023/05/13 06:49:29;;;;;;;17.20;10.13;;;;;;;;;;5014594;28;20382;-79
2023/05/13 06:51:55;;;;;;;20.88;10.68;;;;;;;;;;5014357;28;20062;-79
2023/05/13 06:54:22;;;;;;;20.80;9.93;;;;;;;;;;5013883;28;20418;-77
2023/05/13 06:56:48;;;;;;;16.95;10.30;;;;;;;;;;5014309;28;20026;-78
2023/05/13 06:59:14;;;;;;;17.95;10.80;;;;;;;;;;5012884;28;20026;-79
2023/05/13 07:01:41;;;;;;;19.15;9.32;;;;;;;;;;5013002;28;20101;-76
2023/05/13 07:04:07;;;;;;;17.27;10.05;;;;;;;;;;5014452;28;20172;-77
2023/05/13 07:06:34;;;;;;;18.33;10.00;;;;;;;;;;5012360;28;20406;-78
2023/05/13 07:09:00;;;;;;;17.02;9.30;;;;;;;;;;5013986;28;20026;-77
2023/05/13 07:11:27;;;;;;;19.75;9.35;;;;;;;;;;5014159;28;20474;-77
2023/05/13 07:13:53;;;;;;;17.92;10.00;;;;;;;;;;5014036;28;20107;-78
2023/05/13 07:16:20;;;;;;;12.93;9.10;;;;;;;;;;5012716;28;20029;-78
2023/05/13 07:18:46;;;;;;;17.52;8.40;;;;;;;;;;5012506;28;20433;-76
2023/05/13 07:21:14;;;;;;;16.80;9.02;;;;;;;;;;5013914;28;20046;-78
2023/05/13 07:23:40;;;;;;;17.30;9.55;;;;;;;;;;5012859;28;20074;-76
2023/05/13 07:26:06;;;;;;;15.00;9.57;;;;;;;;;;5011890;28;20117;-77
2023/05/13 07:28:33;;;;;;;15.00;9.00;;;;;;;;;;5013451;28;20077;-77
2023/05/13 07:30:59;;;;;;;17.05;9.35;;;;;;;;;;5012418;28;20025;-76
2023/05/13 07:33:25;;;;;;;16.67;9.38;;;;;;;;;;5012734;28;20479;-77
2023/05/13 07:35:51;;;;;;;15.65;9.50;;;;;;;;;;5013584;28;20033;-77
2023/05/13 07:38:17;;;;;;;13.35;8.63;;;;;;;;;;5013522;28;20026;-76
2023/05/13 07:40:43;;;;;;;13.38;8.38;;;;;;;;;;5010176;28;20018;-77
2023/05/13 07:43:09;;;;;;;17.50;9.15;;;;;;;;;;5011303;28;20053;-77
2023/05/13 07:45:35;;;;;;;17.50;10.52;;;;;;;;;;5011760;28;20033;-78
2023/05/13 07:48:02;;;;;;;15.23;8.68;;;;;;;;;;5011803;28;20481;-78
2023/05/13 07:50:28;;;;;;;15.35;9.70;;;;;;;;;;5011759;28;20018;-77
2023/05/13 07:52:54;;;;;;;16.23;8.82;;;;;;;;;;5011580;28;20401;-78
2023/05/13 07:55:20;;;;;;;13.18;8.43;;;;;;;;;;5011616;28;20026;-77
2023/05/13 07:57:46;;;;;;;14.80;8.95;;;;;;;;;;5010211;28;20113;-78
2023/05/13 08:00:12;;;;;;;15.65;8.45;;;;;;;;;;5012368;28;20052;-78
2023/05/13 08:02:38;;;;;;;16.45;8.75;;;;;;;;;;5009054;28;20023;-77
2023/05/13 08:05:05;;;;;;;15.00;8.95;;;;;;;;;;5010706;28;20054;-77
2023/05/13 08:07:31;;;;;;;16.52;9.05;;;;;;;;;;5010598;28;20033;-77
2023/05/13 08:09:57;;;;;;;15.85;8.80;;;;;;;;;;5009236;28;20098;-77
2023/05/13 08:12:23;;;;;;;16.33;9.07;;;;;;;;;;5024588;28;20081;-78
2023/05/13 08:14:49;;;;;;;16.33;9.00;;;;;;;;;;5003823;28;20107;-77
2023/05/13 08:17:18;;;;;;;15.82;8.93;;;;;;;;;;5012008;28;20251;-77
2023/05/13 08:19:45;;;;;;;16.25;8.40;;;;;;;;;;5011069;28;20033;-78
2023/05/13 08:22:11;;;;;;;11.70;7.70;;;;;;;;;;5009659;28;20022;-78
2023/05/13 08:24:39;;;;;;;13.77;8.32;;;;;;;;;;5021672;28;20045;-76
2023/05/13 08:27:05;;;;;;;13.15;7.90;;;;;;;;;;5013365;28;20054;-77
2023/05/13 08:29:31;;;;;;;15.63;8.98;;;;;;;;;;5009030;28;20406;-77
2023/05/13 08:31:57;;;;;;;12.63;8.07;;;;;;;;;;5011212;28;20482;-77
2023/05/13 08:34:23;;;;;;;14.48;8.45;;;;;;;;;;5012310;28;20080;-77
2023/05/13 08:36:49;;;;;;;13.90;8.50;;;;;;;;;;5011049;28;20030;-78
2023/05/13 08:39:15;;;;;;;14.88;8.20;;;;;;;;;;5013114;28;20091;-77
2023/05/13 08:41:42;;;;;;;13.57;7.68;;;;;;;;;;5012302;28;20080;-77
2023/05/13 08:44:09;;;;;;;13.00;7.43;;;;;;;;;;5012154;28;20026;-78
2023/05/13 08:46:37;;;;;;;15.07;8.35;;;;;;;;;;5011096;28;20040;-79
2023/05/13 08:49:03;;;;;;;20.25;7.95;;;;;;;;;;5010515;28;20080;-74
2023/05/13 08:51:30;;;;;;;16.35;8.40;;;;;;;;;;5012109;28;20068;-77
2023/05/13 08:53:57;;;;;;;15.68;7.65;;;;;;;;;;5041015;28;20038;-76
2023/05/13 08:56:27;;;;;;;17.23;7.88;;;;;;;;;;5012066;28;20526;-77
2023/05/13 08:58:53;;;;;;;15.18;8.32;;;;;;;;;;5012127;28;20045;-77
2023/05/13 09:01:19;;;;;;;16.75;8.07;;;;;;;;;;5037430;28;20371;-78
2023/05/13 09:04:05;;;;;;;14.32;7.82;;;;;;;;;;5012015;28;20117;-78
2023/05/13 09:06:32;;;;;;;16.05;8.27;;;;;;;;;;5011199;28;20022;-77
2023/05/13 09:08:58;;;;;;;10.80;7.53;;;;;;;;;;5010807;28;20037;-77
2023/05/13 09:11:25;;;;;;;13.70;7.80;;;;;;;;;;5011789;28;20046;-76
2023/05/13 09:13:58;;;;;;;12.63;6.90;;;;;;;;;;5009260;28;20025;-77
2023/05/13 09:16:25;;;;;;;13.10;7.75;;;;;;;;;;5009668;28;20505;-76
2023/05/13 09:18:56;;;;;;;13.82;7.63;;;;;;;;;;5009772;28;20029;-75
2023/05/13 09:21:25;;;;;;;11.43;7.30;;;;;;;;;;5011349;28;20109;-76
2023/05/13 09:23:55;;;;;;;13.15;7.80;;;;;;;;;;5008517;28;20401;-72
2023/05/13 09:26:30;;;;;;;12.10;7.65;;;;;;;;;;5011388;28;20033;-75
2023/05/13 09:29:16;;;;;;;12.98;7.57;;;;;;;;;;5006896;28;20129;-74
2023/05/13 09:31:42;;;;;;;13.85;7.90;;;;;;;;;;5011641;28;20040;-74
2023/05/13 09:34:08;;;;;;;16.20;8.48;;;;;;;;;;5011167;28;20474;-74
2023/05/13 09:36:34;;;;;;;11.88;7.40;;;;;;;;;;5011362;28;20553;-73
2023/05/13 09:39:02;;;;;;;11.52;7.43;;;;;;;;;;5011730;28;20013;-73
2023/05/13 09:41:30;;;;;;;11.52;7.40;;;;;;;;;;5013762;28;20108;-73
2023/05/13 09:43:57;;;;;;;11.57;7.30;;;;;;;;;;5018325;28;20026;-73
2023/05/13 09:46:24;;;;;;;13.32;7.68;;;;;;;;;;5007838;28;20088;-73
2023/05/13 09:48:55;;;;;;;12.05;7.93;;;;;;;;;;5006896;28;20076;-73
2023/05/13 09:51:26;;;;;;;11.13;7.18;;;;;;;;;;5011328;28;20025;-73
2023/05/13 09:53:52;;;;;;;11.30;7.13;;;;;;;;;;5011408;28;20041;-74
2023/05/13 09:56:21;;;;;;;9.52;6.97;;;;;;;;;;5011423;28;20226;-73
2023/05/13 09:58:51;;;;;;;12.52;7.25;;;;;;;;;;5009548;28;20022;-74
2023/05/13 10:01:17;;;;;;;17.88;7.38;;;;;;;;;;5009328;28;20052;-73
2023/05/13 10:03:44;;;;;;;17.13;8.40;;;;;;;;;;5008909;28;20022;-74
2023/05/13 10:06:10;;;;;;;10.90;7.32;;;;;;;;;;4995707;28;20622;-74
2023/05/13 10:08:38;;;;;;;13.07;7.20;;;;;;;;;;5009099;28;20084;-74
2023/05/13 10:11:05;;;;;;;13.25;7.72;;;;;;;;;;5009830;28;20500;-74
2023/05/13 10:13:31;;;;;;;12.10;7.25;;;;;;;;;;5009724;28;20038;-73
2023/05/13 10:15:58;;;;;;;14.23;7.30;;;;;;;;;;5009626;28;20034;-74
2023/05/13 10:18:24;;;;;;;10.15;7.03;;;;;;;;;;5009489;28;20026;-73
2023/05/13 10:20:51;;;;;;;11.57;7.57;;;;;;;;;;5010510;28;20022;-73
2023/05/13 10:23:18;;;;;;;13.52;7.68;;;;;;;;;;5010718;28;20397;-72
2023/05/13 10:25:45;;;;;;;10.30;7.15;;;;;;;;;;5011325;28;20449;-74
2023/05/13 10:28:11;;;;;;;13.02;7.60;;;;;;;;;;5009786;28;20022;-73
2023/05/13 10:30:37;;;;;;;11.05;7.47;;;;;;;;;;5011063;28;20054;-74
2023/05/13 10:33:04;;;;;;;10.70;7.45;;;;;;;;;;5009781;28;20367;-73
2023/05/13 10:35:32;;;;;;;11.48;7.05;;;;;;;;;;5010944;28;20185;-73
2023/05/13 10:38:01;;;;;;;11.95;7.05;;;;;;;;;;5010971;28;20030;-73
2023/05/13 10:40:57;;;;;;;13.68;8.25;;;;;;;;;;5010803;28;20482;-73
2023/05/13 10:43:27;;;;;;;16.02;8.50;;;;;;;;;;5002018;28;20051;-72
2023/05/13 10:45:57;;;;;;;12.00;7.10;;;;;;;;;;5010636;28;20125;-73
2023/05/13 10:48:24;;;;;;;11.35;7.30;;;;;;;;;;5010358;28;20029;-72
2023/05/13 10:51:16;;;;;;;11.60;7.32;;;;;;;;;;5010795;28;20033;-73
2023/05/13 10:53:52;;;;;;;10.27;7.05;;;;;;;;;;5008682;28;20052;-73
2023/05/13 10:56:25;;;;;;;13.10;7.45;;;;;;;;;;5010834;28;20080;-73
2023/05/13 10:58:58;;;;;;;13.50;7.68;;;;;;;;;;5010596;28;20026;-72
2023/05/13 11:01:29;;;;;;;9.27;7.03;;;;;;;;;;5014339;28;20032;-74
2023/05/13 11:03:56;;;;;;;12.05;7.60;;;;;;;;;;5013393;28;20018;-74
2023/05/13 11:06:23;;;;;;;13.70;8.20;;;;;;;;;;5014438;28;20057;-73
2023/05/13 11:08:50;;;;;;;12.32;7.15;;;;;;;;;;5014569;28;20029;-73
2023/05/13 11:11:28;;;;;;;11.30;7.35;;;;;;;;;;5013593;28;20018;-74
2023/05/13 11:14:00;;;;;;;12.82;7.00;;;;;;;;;;5014191;28;20109;-73
2023/05/13 11:16:26;;;;;;;10.35;6.72;;;;;;;;;;5014181;28;20053;-73
2023/05/13 11:18:53;;;;;;;11.80;6.70;;;;;;;;;;5014027;28;20030;-73
2023/05/13 11:21:29;;;;;;;10.38;7.00;;;;;;;;;;5012893;28;20022;-73
2023/05/13 11:23:56;;;;;;;9.50;6.95;;;;;;;;;;5013291;28;20045;-73
2023/05/13 11:26:23;;;;;;;9.95;7.53;;;;;;;;;;5013849;28;20145;-72
2023/05/13 11:28:56;;;;;;;13.48;7.20;;;;;;;;;;5013909;28;20137;-73
2023/05/13 11:31:23;;;;;;;10.73;7.20;;;;;;;;;;5013611;28;20021;-73
2023/05/13 11:34:10;;;;;;;12.10;7.00;;;;;;;;;;5013301;28;20398;-73
2023/05/13 11:36:40;;;;;;;10.70;7.00;;;;;;;;;;5012673;28;20478;-73
2023/05/13 11:39:11;;;;;;;9.23;7.63;;;;;;;;;;5013896;28;20088;-72
2023/05/13 11:41:41;;;;;;;14.18;7.95;;;;;;;;;;5013669;28;20037;-73
2023/05/13 11:44:07;;;;;;;11.45;8.20;;;;;;;;;;5012164;28;20025;-71
2023/05/13 11:46:35;;;;;;;14.27;7.20;;;;;;;;;;5012903;28;20647;-73
2023/05/13 11:49:01;;;;;;;11.27;7.10;;;;;;;;;;5013965;28;20030;-73
2023/05/13 11:51:27;;;;;;;9.73;6.60;;;;;;;;;;5012021;28;20045;-72
2023/05/13 11:54:00;;;;;;;11.98;7.55;;;;;;;;;;5012266;28;20022;-73
2023/05/13 11:56:27;;;;;;;13.07;7.10;;;;;;;;;;5013539;28;20014;-73
2023/05/13 11:58:53;;;;;;;9.23;6.47;;;;;;;;;;5013195;28;20022;-72
2023/05/13 12:01:20;;;;;;;9.52;6.82;;;;;;;;;;5013129;28;20040;-73
2023/05/13 12:03:46;;;;;;;10.45;7.10;;;;;;;;;;5013110;28;20069;-72
2023/05/13 12:06:12;;;;;;;11.18;6.40;;;;;;;;;;5012833;28;20029;-72
2023/05/13 12:08:45;;;;;;;10.15;5.78;;;;;;;;;;5013053;28;20493;-72
2023/05/13 12:11:12;;;;;;;10.60;6.18;;;;;;;;;;5010269;28;20112;-72
2023/05/13 12:13:39;;;;;;;9.15;5.93;;;;;;;;;;5013148;28;20101;-73
2023/05/13 12:16:05;;;;;;;7.88;6.00;;;;;;;;;;5012558;28;20410;-73
2023/05/13 12:18:32;;;;;;;9.10;5.90;;;;;;;;;;5012862;28;20026;-73
2023/05/13 12:20:58;;;;;;;8.55;6.25;;;;;;;;;;5012929;28;20018;-72
2023/05/13 12:23:25;;;;;;;8.88;5.68;;;;;;;;;;5012163;28;20451;-73
2023/05/13 12:25:52;;;;;;;8.60;6.03;;;;;;;;;;5012423;28;20029;-74
2023/05/13 12:28:19;;;;;;;8.15;5.90;;;;;;;;;;5011418;28;20088;-73
2023/05/13 12:30:52;;;;;;;8.45;6.20;;;;;;;;;;5012557;28;20034;-73
2023/05/13 12:33:19;;;;;;;9.77;6.25;;;;;;;;;;5012303;28;20110;-71
2023/05/13 12:35:47;;;;;;;10.23;6.00;;;;;;;;;;5012641;28;20021;-73
2023/05/13 12:38:17;;;;;;;8.52;5.90;;;;;;;;;;5012582;28;20025;-72
2023/05/13 12:40:44;;;;;;;10.07;6.55;;;;;;;;;;5012208;28;20482;-73
2023/05/13 12:43:11;;;;;;;10.43;6.00;;;;;;;;;;5012050;28;20026;-74
2023/05/13 12:45:37;;;;;;;10.63;5.88;;;;;;;;;;5011460;28;20026;-74
2023/05/13 12:48:03;;;;;;;6.68;5.72;;;;;;;;;;5012393;28;20021;-72
2023/05/13 12:50:29;;;;;;;10.45;5.80;;;;;;;;;;5012672;28;20045;-72
2023/05/13 12:52:56;;;;;;;7.07;5.30;;;;;;;;;;5010934;28;20495;-72
2023/05/13 12:55:22;;;;;;;8.73;6.28;;;;;;;;;;5010248;28;20036;-73
2023/05/13 12:58:03;;;;;;;8.30;5.45;;;;;;;;;;5012217;28;20108;-72
2023/05/13 13:00:29;;;;;;;9.63;5.65;;;;;;;;;;5012174;28;20026;-73
2023/05/13 13:02:56;;;;;;;9.30;6.13;;;;;;;;;;5011179;28;20021;-72
2023/05/13 13:05:22;;;;;;;10.13;5.60;;;;;;;;;;5023383;28;20458;-73
2023/05/13 13:07:49;;;;;;;6.60;5.43;;;;;;;;;;5011790;28;20026;-72
2023/05/13 13:10:15;;;;;;;9.00;5.20;;;;;;;;;;5011759;28;20021;-73
2023/05/13 13:12:41;;;;;;;10.55;5.70;;;;;;;;;;5011857;28;20076;-73
2023/05/13 13:15:08;;;;;;;7.95;5.30;;;;;;;;;;5011557;28;20030;-73
2023/05/13 13:17:34;;;;;;;11.05;5.90;;;;;;;;;;5014430;28;20054;-73
2023/05/13 13:20:00;;;;;;;9.52;5.88;;;;;;;;;;5016185;28;20032;-74
2023/05/13 13:22:26;;;;;;;8.50;5.93;;;;;;;;;;5011004;28;20569;-73
2023/05/13 13:24:52;;;;;;;7.60;5.70;;;;;;;;;;5011152;28;20041;-73
2023/05/13 13:27:18;;;;;;;8.55;5.80;;;;;;;;;;5011215;28;20110;-73
2023/05/13 13:29:45;;;;;;;7.55;5.15;;;;;;;;;;5011652;28;20025;-73
2023/05/13 13:32:12;;;;;;;7.60;5.85;;;;;;;;;;5011619;28;20030;-73
2023/05/13 13:34:38;;;;;;;9.27;6.03;;;;;;;;;;5010599;28;20374;-74
2023/05/13 13:37:04;;;;;;;9.07;5.53;;;;;;;;;;5011509;28;20033;-73
2023/05/13 13:39:30;;;;;;;6.15;5.32;;;;;;;;;;5011158;28;20030;-74
2023/05/13 13:41:56;;;;;;;8.80;5.53;;;;;;;;;;5010840;28;20145;-74
2023/05/13 13:44:23;;;;;;;9.23;5.63;;;;;;;;;;5010627;28;20113;-73
2023/05/13 13:46:49;;;;;;;7.55;5.35;;;;;;;;;;5011776;28;20029;-74
2023/05/13 13:49:17;;;;;;;7.22;5.30;;;;;;;;;;5011136;28;20502;-73
2023/05/13 13:51:43;;;;;;;10.50;5.88;;;;;;;;;;5008886;28;20042;-75
2023/05/13 13:54:09;;;;;;;10.43;5.72;;;;;;;;;;5009348;28;20053;-72
2023/05/13 13:56:38;;;;;;;10.05;5.05;;;;;;;;;;5011353;28;20513;-74
2023/05/13 13:59:04;;;;;;;7.43;5.20;;;;;;;;;;5010187;28;20030;-74
2023/05/13 14:01:30;;;;;;;7.88;4.95;;;;;;;;;;5009269;28;20109;-72
2023/05/13 14:04:12;;;;;;;8.43;5.20;;;;;;;;;;5009987;28;20188;-73
2023/05/13 14:06:39;;;;;;;8.48;5.25;;;;;;;;;;5007973;28;20033;-72
2023/05/13 14:09:05;;;;;;;7.40;5.07;;;;;;;;;;5026424;28;20060;-73
2023/05/13 14:11:32;;;;;;;7.93;5.30;;;;;;;;;;5011116;28;20093;-72
2023/05/13 14:13:58;;;;;;;8.63;5.03;;;;;;;;;;5026255;28;20030;-72
2023/05/13 14:16:24;;;;;;;7.35;5.32;;;;;;;;;;5009659;28;20402;-70
2023/05/13 14:18:50;;;;;;;8.10;5.43;;;;;;;;;;5011137;28;20493;-72
2023/05/13 14:21:16;;;;;;;7.85;5.82;;;;;;;;;;5017059;28;20017;-72
2023/05/13 14:23:42;;;;;;;7.82;5.45;;;;;;;;;;5030165;28;20041;-72
2023/05/13 14:26:14;;;;;;;8.48;5.10;;;;;;;;;;5030596;28;20065;-73
2023/05/13 14:28:40;;;;;;;6.18;5.10;;;;;;;;;;5030840;28;20052;-72